sensor_id;sensor_type;location;lat;lon;timestamp;temperature;humidity
57218;DHT22;43078;52.972;6.482;2023-04-29T00:01:51;10.90;99.90
57218;DHT22;43078;52.972;6.482;2023-04-29T00:04:16;10.90;99.90
57218;DHT22;43078;52.972;6.482;2023-04-29T00:06:42;10.80;99.90
57218;DHT22;43078;52.972;6.482;2023-04-29T00:09:08;10.80;99.90
57218;DHT22;43078;52.972;6.482;2023-04-29T00:11:33;10.80;99.90
57218;DHT22;43078;52.972;6.482;2023-04-29T00:13:59;10.80;99.90
57218;DHT22;43078;52.972;6.482;2023-04-29T00:16:25;10.80;99.90
57218;DHT22;43078;52.972;6.482;2023-04-29T00:18:51;10.80;99.90
57218;DHT22;43078;52.972;6.482;2023-04-29T00:21:16;10.70;99.90
57218;DHT22;43078;52.972;6.482;2023-04-29T00:23:42;10.70;99.90
57218;DHT22;43078;52.972;6.482;2023-04-29T00:26:08;10.60;99.90
57218;DHT22;43078;52.972;6.482;2023-04-29T00:28:33;10.60;99.90
57218;DHT22;43078;52.972;6.482;2023-04-29T00:30:59;10.60;99.90
57218;DHT22;43078;52.972;6.482;2023-04-29T00:33:24;10.60;99.90
57218;DHT22;43078;52.972;6.482;2023-04-29T00:35:50;10.60;99.90
57218;DHT22;43078;52.972;6.482;2023-04-29T00:38:16;10.60;99.90
57218;DHT22;43078;52.972;6.482;2023-04-29T00:40:42;10.60;99.90
57218;DHT22;43078;52.972;6.482;2023-04-29T00:43:08;10.60;99.90
57218;DHT22;43078;52.972;6.482;2023-04-29T00:45:33;10.60;99.90
57218;DHT22;43078;52.972;6.482;2023-04-29T00:47:59;10.50;99.90
57218;DHT22;43078;52.972;6.482;2023-04-29T00:50:25;10.50;99.90
57218;DHT22;43078;52.972;6.482;2023-04-29T00:52:50;10.50;99.90
57218;DHT22;43078;52.972;6.482;2023-04-29T00:55:17;10.50;99.90
57218;DHT22;43078;52.972;6.482;2023-04-29T00:57:43;10.50;99.90
57218;DHT22;43078;52.972;6.482;2023-04-29T01:00:12;10.50;99.90
57218;DHT22;43078;52.972;6.482;2023-04-29T01:02:39;10.50;99.90
57218;DHT22;43078;52.972;6.482;2023-04-29T01:05:05;10.50;99.90
57218;DHT22;43078;52.972;6.482;2023-04-29T01:07:40;10.50;99.90
57218;DHT22;43078;52.972;6.482;2023-04-29T01:10:27;10.50;99.90
57218;DHT22;43078;52.972;6.482;2023-04-29T01:18:26;10.50;99.90
57218;DHT22;43078;52.972;6.482;2023-04-29T01:20:52;10.50;99.90
57218;DHT22;43078;52.972;6.482;2023-04-29T01:23:18;10.40;99.90
57218;DHT22;43078;52.972;6.482;2023-04-29T01:25:44;10.50;99.90
57218;DHT22;43078;52.972;6.482;2023-04-29T01:31:04;10.40;99.90
57218;DHT22;43078;52.972;6.482;2023-04-29T01:33:43;10.40;99.90
57218;DHT22;43078;52.972;6.482;2023-04-29T01:39:19;10.30;99.90
57218;DHT22;43078;52.972;6.482;2023-04-29T01:44:37;10.30;99.90
57218;DHT22;43078;52.972;6.482;2023-04-29T01:47:04;10.30;99.90
57218;DHT22;43078;52.972;6.482;2023-04-29T01:49:34;10.30;99.90
57218;DHT22;43078;52.972;6.482;2023-04-29T01:52:00;10.30;99.90
57218;DHT22;43078;52.972;6.482;2023-04-29T01:54:25;10.30;99.90
57218;DHT22;43078;52.972;6.482;2023-04-29T01:56:51;10.30;99.90
57218;DHT22;43078;52.972;6.482;2023-04-29T01:59:17;10.30;99.90
57218;DHT22;43078;52.972;6.482;2023-04-29T02:01:43;10.30;99.90
57218;DHT22;43078;52.972;6.482;2023-04-29T02:04:08;10.30;99.90
57218;DHT22;43078;52.972;6.482;2023-04-29T02:06:34;10.30;99.90
57218;DHT22;43078;52.972;6.482;2023-04-29T02:08:59;10.30;99.90
57218;DHT22;43078;52.972;6.482;2023-04-29T02:11:25;10.30;99.90
57218;DHT22;43078;52.972;6.482;2023-04-29T02:13:51;10.30;99.90
57218;DHT22;43078;52.972;6.482;2023-04-29T02:16:17;10.20;99.90
57218;DHT22;43078;52.972;6.482;2023-04-29T02:18:43;10.20;99.90
57218;DHT22;43078;52.972;6.482;2023-04-29T02:21:08;10.20;99.90
57218;DHT22;43078;52.972;6.482;2023-04-29T02:23:34;10.20;99.90
57218;DHT22;43078;52.972;6.482;2023-04-29T02:26:00;10.20;99.90
57218;DHT22;43078;52.972;6.482;2023-04-29T02:28:26;10.20;99.90
57218;DHT22;43078;52.972;6.482;2023-04-29T02:30:52;10.20;99.90
57218;DHT22;43078;52.972;6.482;2023-04-29T02:33:17;10.10;99.90
57218;DHT22;43078;52.972;6.482;2023-04-29T02:35:43;10.20;99.90
57218;DHT22;43078;52.972;6.482;2023-04-29T02:38:09;10.10;99.90
57218;DHT22;43078;52.972;6.482;2023-04-29T02:40:42;10.20;99.90
57218;DHT22;43078;52.972;6.482;2023-04-29T02:43:09;10.20;99.90
57218;DHT22;43078;52.972;6.482;2023-04-29T02:45:35;10.20;99.90
57218;DHT22;43078;52.972;6.482;2023-04-29T02:48:01;10.10;99.90
57218;DHT22;43078;52.972;6.482;2023-04-29T02:50:26;10.10;99.90
57218;DHT22;43078;52.972;6.482;2023-04-29T02:52:53;10.20;99.90
57218;DHT22;43078;52.972;6.482;2023-04-29T02:55:18;10.10;99.90
57218;DHT22;43078;52.972;6.482;2023-04-29T02:57:44;10.10;99.90
57218;DHT22;43078;52.972;6.482;2023-04-29T03:00:10;10.20;99.90
57218;DHT22;43078;52.972;6.482;2023-04-29T03:02:36;10.10;99.90
57218;DHT22;43078;52.972;6.482;2023-04-29T03:05:02;10.10;99.90
57218;DHT22;43078;52.972;6.482;2023-04-29T03:07:29;10.10;99.90
57218;DHT22;43078;52.972;6.482;2023-04-29T03:09:54;10.10;99.90
57218;DHT22;43078;52.972;6.482;2023-04-29T03:12:20;10.10;99.90
57218;DHT22;43078;52.972;6.482;2023-04-29T03:14:46;10.10;99.90
57218;DHT22;43078;52.972;6.482;2023-04-29T03:17:12;10.10;99.90
57218;DHT22;43078;52.972;6.482;2023-04-29T03:19:38;10.20;99.90
57218;DHT22;43078;52.972;6.482;2023-04-29T03:22:04;10.10;99.90
57218;DHT22;43078;52.972;6.482;2023-04-29T03:24:29;10.10;99.90
57218;DHT22;43078;52.972;6.482;2023-04-29T03:26:55;10.10;99.90
57218;DHT22;43078;52.972;6.482;2023-04-29T03:29:21;10.10;99.90
57218;DHT22;43078;52.972;6.482;2023-04-29T03:31:46;10.10;99.90
57218;DHT22;43078;52.972;6.482;2023-04-29T03:34:12;10.10;99.90
57218;DHT22;43078;52.972;6.482;2023-04-29T03:36:39;10.10;99.90
57218;DHT22;43078;52.972;6.482;2023-04-29T03:39:05;10.10;99.90
57218;DHT22;43078;52.972;6.482;2023-04-29T03:41:30;10.10;99.90
57218;DHT22;43078;52.972;6.482;2023-04-29T03:43:56;10.10;99.90
57218;DHT22;43078;52.972;6.482;2023-04-29T03:46:26;10.10;99.90
57218;DHT22;43078;52.972;6.482;2023-04-29T03:48:51;10.10;99.90
57218;DHT22;43078;52.972;6.482;2023-04-29T03:51:23;10.00;99.90
57218;DHT22;43078;52.972;6.482;2023-04-29T03:53:49;10.00;99.90
57218;DHT22;43078;52.972;6.482;2023-04-29T03:56:15;10.00;99.90
57218;DHT22;43078;52.972;6.482;2023-04-29T03:58:40;10.00;99.90
57218;DHT22;43078;52.972;6.482;2023-04-29T04:01:06;10.00;99.90
57218;DHT22;43078;52.972;6.482;2023-04-29T04:03:32;10.00;99.90
57218;DHT22;43078;52.972;6.482;2023-04-29T04:05:57;10.00;99.90
57218;DHT22;43078;52.972;6.482;2023-04-29T04:08:23;9.90;99.90
57218;DHT22;43078;52.972;6.482;2023-04-29T04:10:49;9.90;99.90
57218;DHT22;43078;52.972;6.482;2023-04-29T04:13:15;9.90;99.90
57218;DHT22;43078;52.972;6.482;2023-04-29T04:15:40;9.90;99.90
57218;DHT22;43078;52.972;6.482;2023-04-29T04:18:07;9.90;99.90
57218;DHT22;43078;52.972;6.482;2023-04-29T04:20:35;9.90;99.90
57218;DHT22;43078;52.972;6.482;2023-04-29T04:23:01;9.90;99.90
57218;DHT22;43078;52.972;6.482;2023-04-29T04:25:27;9.90;99.90
57218;DHT22;43078;52.972;6.482;2023-04-29T04:27:53;9.90;99.90
57218;DHT22;43078;52.972;6.482;2023-04-29T04:30:19;9.80;99.90
57218;DHT22;43078;52.972;6.482;2023-04-29T04:32:45;9.80;99.90
57218;DHT22;43078;52.972;6.482;2023-04-29T04:35:10;9.80;99.90
57218;DHT22;43078;52.972;6.482;2023-04-29T04:37:37;9.80;99.90
57218;DHT22;43078;52.972;6.482;2023-04-29T04:40:03;9.80;99.90
57218;DHT22;43078;52.972;6.482;2023-04-29T04:42:29;9.80;99.90
57218;DHT22;43078;52.972;6.482;2023-04-29T04:44:55;9.80;99.90
57218;DHT22;43078;52.972;6.482;2023-04-29T04:47:21;9.80;99.90
57218;DHT22;43078;52.972;6.482;2023-04-29T04:49:47;9.80;99.90
57218;DHT22;43078;52.972;6.482;2023-04-29T04:52:14;9.80;99.90
57218;DHT22;43078;52.972;6.482;2023-04-29T04:54:39;9.80;99.90
57218;DHT22;43078;52.972;6.482;2023-04-29T04:57:05;9.80;99.90
57218;DHT22;43078;52.972;6.482;2023-04-29T04:59:31;9.80;99.90
57218;DHT22;43078;52.972;6.482;2023-04-29T05:01:58;9.80;99.90
57218;DHT22;43078;52.972;6.482;2023-04-29T05:04:23;9.80;99.90
57218;DHT22;43078;52.972;6.482;2023-04-29T05:06:49;9.80;99.90
57218;DHT22;43078;52.972;6.482;2023-04-29T05:09:15;9.70;99.90
57218;DHT22;43078;52.972;6.482;2023-04-29T05:11:41;9.70;99.90
57218;DHT22;43078;52.972;6.482;2023-04-29T05:14:06;9.70;99.90
57218;DHT22;43078;52.972;6.482;2023-04-29T05:16:32;9.70;99.90
57218;DHT22;43078;52.972;6.482;2023-04-29T05:18:57;9.70;99.90
57218;DHT22;43078;52.972;6.482;2023-04-29T05:21:23;9.70;99.90
57218;DHT22;43078;52.972;6.482;2023-04-29T05:23:48;9.70;99.90
57218;DHT22;43078;52.972;6.482;2023-04-29T05:26:14;9.70;99.90
57218;DHT22;43078;52.972;6.482;2023-04-29T05:28:40;9.70;99.90
57218;DHT22;43078;52.972;6.482;2023-04-29T05:31:06;9.70;99.90
57218;DHT22;43078;52.972;6.482;2023-04-29T05:33:31;9.70;99.90
57218;DHT22;43078;52.972;6.482;2023-04-29T05:35:57;9.70;99.90
57218;DHT22;43078;52.972;6.482;2023-04-29T05:38:23;9.70;99.90
57218;DHT22;43078;52.972;6.482;2023-04-29T05:40:56;9.70;99.90
57218;DHT22;43078;52.972;6.482;2023-04-29T05:43:22;9.70;99.90
57218;DHT22;43078;52.972;6.482;2023-04-29T05:45:48;9.70;99.90
57218;DHT22;43078;52.972;6.482;2023-04-29T05:48:14;9.70;99.90
57218;DHT22;43078;52.972;6.482;2023-04-29T05:50:39;9.70;99.90
57218;DHT22;43078;52.972;6.482;2023-04-29T05:53:06;9.70;99.90
57218;DHT22;43078;52.972;6.482;2023-04-29T05:55:31;9.70;99.90
57218;DHT22;43078;52.972;6.482;2023-04-29T05:57:57;9.70;99.90
57218;DHT22;43078;52.972;6.482;2023-04-29T06:00:23;9.70;99.90
57218;DHT22;43078;52.972;6.482;2023-04-29T06:02:48;9.70;99.90
57218;DHT22;43078;52.972;6.482;2023-04-29T06:05:14;9.70;99.90
57218;DHT22;43078;52.972;6.482;2023-04-29T06:07:40;9.70;99.90
57218;DHT22;43078;52.972;6.482;2023-04-29T06:10:07;9.70;99.90
57218;DHT22;43078;52.972;6.482;2023-04-29T06:12:33;9.70;99.90
57218;DHT22;43078;52.972;6.482;2023-04-29T06:14:59;9.70;99.90
57218;DHT22;43078;52.972;6.482;2023-04-29T06:17:25;9.80;99.90
57218;DHT22;43078;52.972;6.482;2023-04-29T06:19:53;9.80;99.90
57218;DHT22;43078;52.972;6.482;2023-04-29T06:22:19;9.80;99.90
57218;DHT22;43078;52.972;6.482;2023-04-29T06:24:45;9.80;99.90
57218;DHT22;43078;52.972;6.482;2023-04-29T06:27:11;9.80;99.90
57218;DHT22;43078;52.972;6.482;2023-04-29T06:29:37;9.80;99.90
57218;DHT22;43078;52.972;6.482;2023-04-29T06:32:03;9.80;99.90
57218;DHT22;43078;52.972;6.482;2023-04-29T06:34:28;9.80;99.90
57218;DHT22;43078;52.972;6.482;2023-04-29T06:36:54;9.80;99.90
57218;DHT22;43078;52.972;6.482;2023-04-29T06:39:20;9.90;99.90
57218;DHT22;43078;52.972;6.482;2023-04-29T06:41:46;9.90;99.90
57218;DHT22;43078;52.972;6.482;2023-04-29T06:44:11;9.90;99.90
57218;DHT22;43078;52.972;6.482;2023-04-29T06:46:37;10.00;99.90
57218;DHT22;43078;52.972;6.482;2023-04-29T06:49:03;10.00;99.90
57218;DHT22;43078;52.972;6.482;2023-04-29T06:51:29;10.00;99.90
57218;DHT22;43078;52.972;6.482;2023-04-29T06:53:56;10.00;99.90
57218;DHT22;43078;52.972;6.482;2023-04-29T06:56:22;10.00;99.90
57218;DHT22;43078;52.972;6.482;2023-04-29T06:58:48;10.10;99.90
57218;DHT22;43078;52.972;6.482;2023-04-29T07:01:13;10.00;99.90
57218;DHT22;43078;52.972;6.482;2023-04-29T07:03:39;10.10;99.90
57218;DHT22;43078;52.972;6.482;2023-04-29T07:06:05;10.10;99.90
57218;DHT22;43078;52.972;6.482;2023-04-29T07:08:30;10.10;99.90
57218;DHT22;43078;52.972;6.482;2023-04-29T07:10:57;10.20;99.90
57218;DHT22;43078;52.972;6.482;2023-04-29T07:13:23;10.20;99.90
57218;DHT22;43078;52.972;6.482;2023-04-29T07:15:49;10.20;99.90
57218;DHT22;43078;52.972;6.482;2023-04-29T07:18:15;10.30;99.90
57218;DHT22;43078;52.972;6.482;2023-04-29T07:20:40;10.30;99.90
57218;DHT22;43078;52.972;6.482;2023-04-29T07:23:06;10.40;99.90
57218;DHT22;43078;52.972;6.482;2023-04-29T07:25:32;10.50;99.90
57218;DHT22;43078;52.972;6.482;2023-04-29T07:27:58;10.50;99.90
57218;DHT22;43078;52.972;6.482;2023-04-29T07:30:24;10.60;99.90
57218;DHT22;43078;52.972;6.482;2023-04-29T07:32:49;10.70;99.90
57218;DHT22;43078;52.972;6.482;2023-04-29T07:35:15;10.80;99.90
57218;DHT22;43078;52.972;6.482;2023-04-29T07:37:40;10.80;99.90
57218;DHT22;43078;52.972;6.482;2023-04-29T07:40:08;10.90;99.90
57218;DHT22;43078;52.972;6.482;2023-04-29T07:42:34;11.00;99.90
57218;DHT22;43078;52.972;6.482;2023-04-29T07:44:59;11.00;99.90
57218;DHT22;43078;52.972;6.482;2023-04-29T07:47:25;11.10;99.90
57218;DHT22;43078;52.972;6.482;2023-04-29T07:49:51;11.20;99.90
57218;DHT22;43078;52.972;6.482;2023-04-29T07:52:17;11.20;99.90
57218;DHT22;43078;52.972;6.482;2023-04-29T07:54:43;11.30;99.90
57218;DHT22;43078;52.972;6.482;2023-04-29T07:57:08;11.30;99.90
57218;DHT22;43078;52.972;6.482;2023-04-29T07:59:34;11.40;99.90
57218;DHT22;43078;52.972;6.482;2023-04-29T08:02:00;11.50;99.90
57218;DHT22;43078;52.972;6.482;2023-04-29T08:04:25;11.60;99.90
57218;DHT22;43078;52.972;6.482;2023-04-29T08:06:51;11.60;99.90
57218;DHT22;43078;52.972;6.482;2023-04-29T08:09:17;11.70;99.90
57218;DHT22;43078;52.972;6.482;2023-04-29T08:11:42;11.80;99.90
57218;DHT22;43078;52.972;6.482;2023-04-29T08:14:09;11.90;99.90
57218;DHT22;43078;52.972;6.482;2023-04-29T08:16:35;12.00;99.90
57218;DHT22;43078;52.972;6.482;2023-04-29T08:19:00;12.00;99.90
57218;DHT22;43078;52.972;6.482;2023-04-29T08:21:26;12.00;99.90
57218;DHT22;43078;52.972;6.482;2023-04-29T08:23:52;12.10;99.90
57218;DHT22;43078;52.972;6.482;2023-04-29T08:26:18;12.20;99.90
57218;DHT22;43078;52.972;6.482;2023-04-29T08:28:43;12.20;99.90
57218;DHT22;43078;52.972;6.482;2023-04-29T08:31:20;12.30;99.90
57218;DHT22;43078;52.972;6.482;2023-04-29T08:33:46;12.40;99.90
57218;DHT22;43078;52.972;6.482;2023-04-29T08:36:11;12.40;99.90
57218;DHT22;43078;52.972;6.482;2023-04-29T08:38:37;12.50;99.90
57218;DHT22;43078;52.972;6.482;2023-04-29T08:41:03;12.60;99.90
57218;DHT22;43078;52.972;6.482;2023-04-29T08:43:30;12.60;99.90
57218;DHT22;43078;52.972;6.482;2023-04-29T08:45:57;12.70;99.90
57218;DHT22;43078;52.972;6.482;2023-04-29T08:48:23;12.80;99.90
57218;DHT22;43078;52.972;6.482;2023-04-29T08:50:50;12.80;99.90
57218;DHT22;43078;52.972;6.482;2023-04-29T08:53:16;12.80;99.70
57218;DHT22;43078;52.972;6.482;2023-04-29T08:55:42;12.90;99.10
57218;DHT22;43078;52.972;6.482;2023-04-29T08:58:09;12.90;99.00
57218;DHT22;43078;52.972;6.482;2023-04-29T09:00:35;12.90;99.40
57218;DHT22;43078;52.972;6.482;2023-04-29T09:05:37;12.90;99.20
57218;DHT22;43078;52.972;6.482;2023-04-29T09:08:07;13.00;99.90
57218;DHT22;43078;52.972;6.482;2023-04-29T09:10:34;13.10;99.90
57218;DHT22;43078;52.972;6.482;2023-04-29T09:13:00;13.20;99.30
57218;DHT22;43078;52.972;6.482;2023-04-29T09:15:26;13.30;99.30
57218;DHT22;43078;52.972;6.482;2023-04-29T09:17:51;13.40;99.30
57218;DHT22;43078;52.972;6.482;2023-04-29T09:22:47;13.50;98.30
57218;DHT22;43078;52.972;6.482;2023-04-29T09:25:14;13.50;98.00
57218;DHT22;43078;52.972;6.482;2023-04-29T09:27:40;13.60;98.00
57218;DHT22;43078;52.972;6.482;2023-04-29T09:30:06;13.60;96.90
57218;DHT22;43078;52.972;6.482;2023-04-29T09:32:32;13.60;97.00
57218;DHT22;43078;52.972;6.482;2023-04-29T09:34:57;13.60;97.10
57218;DHT22;43078;52.972;6.482;2023-04-29T09:37:24;13.60;96.90
57218;DHT22;43078;52.972;6.482;2023-04-29T09:39:52;13.60;96.30
57218;DHT22;43078;52.972;6.482;2023-04-29T09:42:18;13.70;95.80
57218;DHT22;43078;52.972;6.482;2023-04-29T09:44:43;13.60;95.50
57218;DHT22;43078;52.972;6.482;2023-04-29T09:47:10;13.70;95.90
57218;DHT22;43078;52.972;6.482;2023-04-29T09:49:41;13.70;95.60
57218;DHT22;43078;52.972;6.482;2023-04-29T09:52:09;13.70;96.10
57218;DHT22;43078;52.972;6.482;2023-04-29T09:54:37;13.70;95.90
57218;DHT22;43078;52.972;6.482;2023-04-29T09:57:04;13.80;95.60
57218;DHT22;43078;52.972;6.482;2023-04-29T09:59:31;13.90;96.30
57218;DHT22;43078;52.972;6.482;2023-04-29T10:01:59;14.00;97.60
57218;DHT22;43078;52.972;6.482;2023-04-29T10:04:26;14.10;98.20
57218;DHT22;43078;52.972;6.482;2023-04-29T10:06:54;14.20;97.70
57218;DHT22;43078;52.972;6.482;2023-04-29T10:09:21;14.30;95.70
57218;DHT22;43078;52.972;6.482;2023-04-29T10:11:52;14.30;95.80
57218;DHT22;43078;52.972;6.482;2023-04-29T10:14:23;14.30;94.90
57218;DHT22;43078;52.972;6.482;2023-04-29T10:17:10;14.30;95.10
57218;DHT22;43078;52.972;6.482;2023-04-29T10:19:51;14.40;93.70
57218;DHT22;43078;52.972;6.482;2023-04-29T10:22:26;14.40;93.80
57218;DHT22;43078;52.972;6.482;2023-04-29T10:24:54;14.50;93.00
57218;DHT22;43078;52.972;6.482;2023-04-29T10:27:21;14.50;92.10
57218;DHT22;43078;52.972;6.482;2023-04-29T10:29:51;14.50;92.00
57218;DHT22;43078;52.972;6.482;2023-04-29T10:32:18;14.50;91.70
57218;DHT22;43078;52.972;6.482;2023-04-29T10:34:50;14.60;91.10
57218;DHT22;43078;52.972;6.482;2023-04-29T10:37:16;14.60;92.20
57218;DHT22;43078;52.972;6.482;2023-04-29T10:40:11;14.70;90.80
57218;DHT22;43078;52.972;6.482;2023-04-29T10:42:46;14.60;89.20
57218;DHT22;43078;52.972;6.482;2023-04-29T10:45:28;14.60;91.90
57218;DHT22;43078;52.972;6.482;2023-04-29T10:50:32;14.70;93.70
57218;DHT22;43078;52.972;6.482;2023-04-29T10:53:01;14.80;94.80
57218;DHT22;43078;52.972;6.482;2023-04-29T10:55:27;14.90;95.00
57218;DHT22;43078;52.972;6.482;2023-04-29T10:57:54;15.00;94.10
57218;DHT22;43078;52.972;6.482;2023-04-29T11:00:31;15.10;94.60
57218;DHT22;43078;52.972;6.482;2023-04-29T11:03:02;15.20;94.30
57218;DHT22;43078;52.972;6.482;2023-04-29T11:05:34;15.30;94.10
57218;DHT22;43078;52.972;6.482;2023-04-29T11:08:14;15.30;93.90
57218;DHT22;43078;52.972;6.482;2023-04-29T11:10:49;15.40;94.90
57218;DHT22;43078;52.972;6.482;2023-04-29T11:13:20;15.40;93.50
57218;DHT22;43078;52.972;6.482;2023-04-29T11:15:47;15.50;94.00
57218;DHT22;43078;52.972;6.482;2023-04-29T11:18:13;15.60;92.90
57218;DHT22;43078;52.972;6.482;2023-04-29T11:23:33;15.70;92.70
57218;DHT22;43078;52.972;6.482;2023-04-29T11:26:00;15.60;91.30
57218;DHT22;43078;52.972;6.482;2023-04-29T11:28:32;15.70;93.50
57218;DHT22;43078;52.972;6.482;2023-04-29T11:30:58;15.70;94.40
57218;DHT22;43078;52.972;6.482;2023-04-29T11:33:25;15.80;93.80
57218;DHT22;43078;52.972;6.482;2023-04-29T11:35:54;15.80;90.80
57218;DHT22;43078;52.972;6.482;2023-04-29T11:38:26;15.80;90.40
57218;DHT22;43078;52.972;6.482;2023-04-29T11:40:54;15.80;87.70
57218;DHT22;43078;52.972;6.482;2023-04-29T11:43:21;15.80;90.40
57218;DHT22;43078;52.972;6.482;2023-04-29T11:45:48;15.80;91.60
57218;DHT22;43078;52.972;6.482;2023-04-29T11:48:21;15.90;93.50
57218;DHT22;43078;52.972;6.482;2023-04-29T11:50:50;16.00;94.00
57218;DHT22;43078;52.972;6.482;2023-04-29T11:53:18;16.10;93.30
57218;DHT22;43078;52.972;6.482;2023-04-29T11:55:44;16.10;94.10
57218;DHT22;43078;52.972;6.482;2023-04-29T11:58:10;16.20;94.50
57218;DHT22;43078;52.972;6.482;2023-04-29T12:00:36;16.20;94.50
57218;DHT22;43078;52.972;6.482;2023-04-29T12:03:16;16.30;92.40
57218;DHT22;43078;52.972;6.482;2023-04-29T12:05:54;16.30;90.90
57218;DHT22;43078;52.972;6.482;2023-04-29T12:08:24;16.40;93.20
57218;DHT22;43078;52.972;6.482;2023-04-29T12:10:54;16.40;90.30
57218;DHT22;43078;52.972;6.482;2023-04-29T12:13:22;16.40;83.90
57218;DHT22;43078;52.972;6.482;2023-04-29T12:15:50;16.30;82.70
57218;DHT22;43078;52.972;6.482;2023-04-29T12:18:19;16.30;85.70
57218;DHT22;43078;52.972;6.482;2023-04-29T12:20:47;16.30;81.20
57218;DHT22;43078;52.972;6.482;2023-04-29T12:23:15;16.20;81.60
57218;DHT22;43078;52.972;6.482;2023-04-29T12:25:50;16.20;87.90
57218;DHT22;43078;52.972;6.482;2023-04-29T12:28:17;16.20;91.50
57218;DHT22;43078;52.972;6.482;2023-04-29T12:30:44;16.20;90.50
57218;DHT22;43078;52.972;6.482;2023-04-29T12:33:10;16.20;88.20
57218;DHT22;43078;52.972;6.482;2023-04-29T12:35:39;16.20;89.20
57218;DHT22;43078;52.972;6.482;2023-04-29T12:38:05;16.20;88.50
57218;DHT22;43078;52.972;6.482;2023-04-29T12:40:31;16.30;82.60
57218;DHT22;43078;52.972;6.482;2023-04-29T12:43:06;16.20;82.10
57218;DHT22;43078;52.972;6.482;2023-04-29T12:45:32;16.20;85.20
57218;DHT22;43078;52.972;6.482;2023-04-29T12:47:59;16.20;83.50
57218;DHT22;43078;52.972;6.482;2023-04-29T12:52:55;16.40;90.40
57218;DHT22;43078;52.972;6.482;2023-04-29T12:55:20;16.40;91.40
57218;DHT22;43078;52.972;6.482;2023-04-29T12:57:46;16.50;92.30
57218;DHT22;43078;52.972;6.482;2023-04-29T13:00:12;16.60;91.40
57218;DHT22;43078;52.972;6.482;2023-04-29T13:02:38;16.60;92.80
57218;DHT22;43078;52.972;6.482;2023-04-29T13:05:04;16.70;92.50
57218;DHT22;43078;52.972;6.482;2023-04-29T13:07:30;16.80;91.70
57218;DHT22;43078;52.972;6.482;2023-04-29T13:09:55;16.80;92.20
57218;DHT22;43078;52.972;6.482;2023-04-29T13:12:21;16.80;92.10
57218;DHT22;43078;52.972;6.482;2023-04-29T13:14:46;16.80;91.20
57218;DHT22;43078;52.972;6.482;2023-04-29T13:17:12;16.70;89.20
57218;DHT22;43078;52.972;6.482;2023-04-29T13:19:38;16.70;90.30
57218;DHT22;43078;52.972;6.482;2023-04-29T13:22:04;16.70;87.30
57218;DHT22;43078;52.972;6.482;2023-04-29T13:24:29;16.80;87.60
57218;DHT22;43078;52.972;6.482;2023-04-29T13:26:55;16.80;87.90
57218;DHT22;43078;52.972;6.482;2023-04-29T13:29:21;16.90;91.30
57218;DHT22;43078;52.972;6.482;2023-04-29T13:31:46;16.80;92.90
57218;DHT22;43078;52.972;6.482;2023-04-29T13:34:12;16.90;94.50
57218;DHT22;43078;52.972;6.482;2023-04-29T13:36:38;16.90;91.70
57218;DHT22;43078;52.972;6.482;2023-04-29T13:39:03;17.00;92.20
57218;DHT22;43078;52.972;6.482;2023-04-29T13:41:29;16.90;87.30
57218;DHT22;43078;52.972;6.482;2023-04-29T13:43:54;16.80;79.60
57218;DHT22;43078;52.972;6.482;2023-04-29T13:46:20;16.80;84.80
57218;DHT22;43078;52.972;6.482;2023-04-29T13:48:46;16.90;83.80
57218;DHT22;43078;52.972;6.482;2023-04-29T13:51:11;16.90;86.30
57218;DHT22;43078;52.972;6.482;2023-04-29T13:53:37;17.00;90.00
57218;DHT22;43078;52.972;6.482;2023-04-29T13:56:03;16.90;85.50
57218;DHT22;43078;52.972;6.482;2023-04-29T13:58:28;16.90;85.00
57218;DHT22;43078;52.972;6.482;2023-04-29T14:00:54;16.90;86.70
57218;DHT22;43078;52.972;6.482;2023-04-29T14:03:19;17.00;86.70
57218;DHT22;43078;52.972;6.482;2023-04-29T14:05:45;16.90;82.70
57218;DHT22;43078;52.972;6.482;2023-04-29T14:08:11;16.90;89.30
57218;DHT22;43078;52.972;6.482;2023-04-29T14:10:36;17.00;87.70
57218;DHT22;43078;52.972;6.482;2023-04-29T14:13:02;17.00;88.20
57218;DHT22;43078;52.972;6.482;2023-04-29T14:15:28;17.00;88.00
57218;DHT22;43078;52.972;6.482;2023-04-29T14:17:53;17.10;89.90
57218;DHT22;43078;52.972;6.482;2023-04-29T14:20:19;17.10;90.90
57218;DHT22;43078;52.972;6.482;2023-04-29T14:22:45;17.10;87.60
57218;DHT22;43078;52.972;6.482;2023-04-29T14:25:13;17.20;87.20
57218;DHT22;43078;52.972;6.482;2023-04-29T14:27:39;17.20;87.50
57218;DHT22;43078;52.972;6.482;2023-04-29T14:30:05;17.10;87.10
57218;DHT22;43078;52.972;6.482;2023-04-29T14:32:31;17.10;85.50
57218;DHT22;43078;52.972;6.482;2023-04-29T14:34:56;17.10;85.90
57218;DHT22;43078;52.972;6.482;2023-04-29T14:37:23;17.10;86.60
57218;DHT22;43078;52.972;6.482;2023-04-29T14:39:54;17.10;87.40
57218;DHT22;43078;52.972;6.482;2023-04-29T14:42:20;17.20;92.10
57218;DHT22;43078;52.972;6.482;2023-04-29T14:44:45;17.30;91.50
57218;DHT22;43078;52.972;6.482;2023-04-29T14:47:11;17.20;88.70
57218;DHT22;43078;52.972;6.482;2023-04-29T14:49:37;17.20;92.00
57218;DHT22;43078;52.972;6.482;2023-04-29T14:52:08;17.20;92.70
57218;DHT22;43078;52.972;6.482;2023-04-29T14:54:37;17.30;95.10
57218;DHT22;43078;52.972;6.482;2023-04-29T14:57:03;17.40;95.00
57218;DHT22;43078;52.972;6.482;2023-04-29T14:59:31;17.40;93.30
57218;DHT22;43078;52.972;6.482;2023-04-29T15:01:58;17.50;93.60
57218;DHT22;43078;52.972;6.482;2023-04-29T15:04:26;17.40;93.60
57218;DHT22;43078;52.972;6.482;2023-04-29T15:06:52;17.30;93.50
57218;DHT22;43078;52.972;6.482;2023-04-29T15:09:18;17.30;91.40
57218;DHT22;43078;52.972;6.482;2023-04-29T15:11:45;17.30;92.50
57218;DHT22;43078;52.972;6.482;2023-04-29T15:17:39;17.60;97.40
57218;DHT22;43078;52.972;6.482;2023-04-29T15:20:10;17.70;95.10
57218;DHT22;43078;52.972;6.482;2023-04-29T15:22:44;17.80;95.50
57218;DHT22;43078;52.972;6.482;2023-04-29T15:25:13;17.70;92.50
57218;DHT22;43078;52.972;6.482;2023-04-29T15:27:38;17.60;94.20
57218;DHT22;43078;52.972;6.482;2023-04-29T15:30:05;17.60;94.60
57218;DHT22;43078;52.972;6.482;2023-04-29T15:32:31;17.70;97.10
57218;DHT22;43078;52.972;6.482;2023-04-29T15:35:00;17.80;98.20
57218;DHT22;43078;52.972;6.482;2023-04-29T15:37:27;17.90;95.30
57218;DHT22;43078;52.972;6.482;2023-04-29T15:40:21;17.90;95.40
57218;DHT22;43078;52.972;6.482;2023-04-29T15:42:47;17.90;97.30
57218;DHT22;43078;52.972;6.482;2023-04-29T15:45:13;18.00;98.70
57218;DHT22;43078;52.972;6.482;2023-04-29T15:47:39;18.00;99.60
57218;DHT22;43078;52.972;6.482;2023-04-29T15:50:05;18.10;99.90
57218;DHT22;43078;52.972;6.482;2023-04-29T15:52:34;18.20;99.90
57218;DHT22;43078;52.972;6.482;2023-04-29T16:01:39;18.20;99.50
57218;DHT22;43078;52.972;6.482;2023-04-29T16:14:48;18.00;98.20
57218;DHT22;43078;52.972;6.482;2023-04-29T16:17:17;18.10;99.20
57218;DHT22;43078;52.972;6.482;2023-04-29T16:19:42;18.10;96.30